Aberdeen Gardens, Washington
Current Conditions -  °F | °C
As of 7:53 PM on Monday 20 Oct 2014 (Local Time) from KHQM Reporting Station
Light Rain Light Rain  
Wind Chill: 56°   Ceiling: 4500
Heat Index: 56°   Visibility: 4mi
Dew Point: 54°   Wind: 12mph
Humidity: 93%   Direction: 180°S
Pressure: 29.76"   Gusts: NA
Location:  47.1445°N, 123.771°W
Report Text: KHQM 210253Z AUTO 18010KT 4SM -RA BR FEW026 OVC045 13/12 A2976 RMK AO2 RAB00 SLP081 P0027 60028 T01330122 53003
Loading
Personal Weather Stations






























Interactive Weather Map
Tropical Storm Tracking
New forecast layout! Learn more

10-Day Weather Forecast

Advertisements
Track Severe Weather on mobile